sensor_id;sensor_type;location;lat;lon;timestamp;pressure;altitude;pressure_sealevel;temperature;humidity
78675;BME280;67990;59.826;30.108;2023-05-24T00:00:18;101841.44;;;10.32;77.62
78675;BME280;67990;59.826;30.108;2023-05-24T00:02:46;101838.97;;;10.04;78.44
78675;BME280;67990;59.826;30.108;2023-05-24T00:05:13;101841.97;;;10.12;78.67
78675;BME280;67990;59.826;30.108;2023-05-24T00:07:59;101837.13;;;10.19;78.47
78675;BME280;67990;59.826;30.108;2023-05-24T00:10:28;101846.34;;;10.12;77.66
78675;BME280;67990;59.826;30.108;2023-05-24T00:13:14;101828.56;;;10.03;77.55
78675;BME280;67990;59.826;30.108;2023-05-24T00:15:41;101835.16;;;9.96;77.56
78675;BME280;67990;59.826;30.108;2023-05-24T00:18:08;101837.50;;;9.88;77.59
78675;BME280;67990;59.826;30.108;2023-05-24T00:20:35;101828.16;;;9.84;77.64
78675;BME280;67990;59.826;30.108;2023-05-24T00:23:02;101835.47;;;9.79;77.87
78675;BME280;67990;59.826;30.108;2023-05-24T00:28:16;101834.84;;;9.75;77.79
78675;BME280;67990;59.826;30.108;2023-05-24T00:30:44;101834.00;;;9.75;78.33
78675;BME280;67990;59.826;30.108;2023-05-24T00:33:48;101835.47;;;9.79;78.20
78675;BME280;67990;59.826;30.108;2023-05-24T00:36:16;101834.66;;;9.78;78.08
78675;BME280;67990;59.826;30.108;2023-05-24T00:39:00;101825.72;;;9.81;78.11
78675;BME280;67990;59.826;30.108;2023-05-24T00:41:29;101826.88;;;9.77;77.62
78675;BME280;67990;59.826;30.108;2023-05-24T00:44:14;101815.94;;;9.70;77.31
78675;BME280;67990;59.826;30.108;2023-05-24T00:46:41;101823.63;;;9.73;77.59
78675;BME280;67990;59.826;30.108;2023-05-24T00:49:09;101820.34;;;9.70;77.69
78675;BME280;67990;59.826;30.108;2023-05-24T00:51:36;101817.28;;;9.63;78.22
78675;BME280;67990;59.826;30.108;2023-05-24T00:54:22;101817.19;;;9.65;78.25
78675;BME280;67990;59.826;30.108;2023-05-24T01:05:10;101829.59;;;9.36;78.97
78675;BME280;67990;59.826;30.108;2023-05-24T01:07:47;101832.72;;;9.29;80.07
78675;BME280;67990;59.826;30.108;2023-05-24T01:10:38;101820.47;;;9.42;79.47
78675;BME280;67990;59.826;30.108;2023-05-24T01:13:14;101826.91;;;9.50;78.82
78675;BME280;67990;59.826;30.108;2023-05-24T01:15:52;101835.38;;;9.41;79.02
78675;BME280;67990;59.826;30.108;2023-05-24T01:18:24;101837.31;;;9.25;79.49
78675;BME280;67990;59.826;30.108;2023-05-24T01:21:04;101831.09;;;9.40;79.70
78675;BME280;67990;59.826;30.108;2023-05-24T01:23:44;101822.91;;;9.45;78.82
78675;BME280;67990;59.826;30.108;2023-05-24T01:26:36;101829.63;;;9.49;78.52
78675;BME280;67990;59.826;30.108;2023-05-24T01:29:07;101829.63;;;9.49;78.36
78675;BME280;67990;59.826;30.108;2023-05-24T01:31:36;101824.91;;;9.54;78.33
78675;BME280;67990;59.826;30.108;2023-05-24T01:34:04;101829.69;;;9.61;78.41
78675;BME280;67990;59.826;30.108;2023-05-24T01:36:32;101831.03;;;9.67;78.47
78675;BME280;67990;59.826;30.108;2023-05-24T01:38:59;101840.03;;;9.50;78.86
78675;BME280;67990;59.826;30.108;2023-05-24T01:41:49;101837.41;;;9.63;79.48
78675;BME280;67990;59.826;30.108;2023-05-24T01:44:26;101830.94;;;9.68;79.00
78675;BME280;67990;59.826;30.108;2023-05-24T01:47:01;101827.06;;;9.74;79.06
78675;BME280;67990;59.826;30.108;2023-05-24T01:49:33;101823.81;;;9.83;78.40
78675;BME280;67990;59.826;30.108;2023-05-24T01:52:05;101829.31;;;9.92;78.54
78675;BME280;67990;59.826;30.108;2023-05-24T01:57:37;101828.34;;;9.93;78.28
78675;BME280;67990;59.826;30.108;2023-05-24T02:00:13;101838.84;;;9.81;79.01
78675;BME280;67990;59.826;30.108;2023-05-24T02:02:40;101834.16;;;9.98;78.95
78675;BME280;67990;59.826;30.108;2023-05-24T02:05:08;101838.81;;;10.07;78.49
78675;BME280;67990;59.826;30.108;2023-05-24T02:07:35;101838.06;;;10.18;78.45
78675;BME280;67990;59.826;30.108;2023-05-24T02:10:21;101839.00;;;10.29;78.13
78675;BME280;67990;59.826;30.108;2023-05-24T02:12:48;101837.00;;;10.33;77.71
78675;BME280;67990;59.826;30.108;2023-05-24T02:15:17;101848.56;;;10.30;77.61
78675;BME280;67990;59.826;30.108;2023-05-24T02:18:03;101844.28;;;10.42;77.87
78675;BME280;67990;59.826;30.108;2023-05-24T02:23:37;101844.34;;;10.53;78.04
78675;BME280;67990;59.826;30.108;2023-05-24T02:26:04;101846.88;;;10.67;77.84
78675;BME280;67990;59.826;30.108;2023-05-24T02:28:31;101840.22;;;10.74;77.37
78675;BME280;67990;59.826;30.108;2023-05-24T02:33:46;101848.50;;;10.93;77.63
78675;BME280;67990;59.826;30.108;2023-05-24T02:36:13;101846.88;;;11.03;77.85
78675;BME280;67990;59.826;30.108;2023-05-24T02:38:40;101847.81;;;11.14;77.77
78675;BME280;67990;59.826;30.108;2023-05-24T02:41:25;101829.53;;;11.24;77.23
78675;BME280;67990;59.826;30.108;2023-05-24T02:44:10;101857.59;;;11.60;77.21
78675;BME280;67990;59.826;30.108;2023-05-24T02:46:39;101850.28;;;11.87;77.10
78675;BME280;67990;59.826;30.108;2023-05-24T02:49:06;101843.78;;;12.25;76.29
78675;BME280;67990;59.826;30.108;2023-05-24T02:51:34;101847.03;;;12.62;75.56
78675;BME280;67990;59.826;30.108;2023-05-24T02:54:02;101848.59;;;13.08;75.09
78675;BME280;67990;59.826;30.108;2023-05-24T02:56:30;101846.53;;;13.54;74.17
78675;BME280;67990;59.826;30.108;2023-05-24T02:58:57;101845.47;;;14.18;73.12
78675;BME280;67990;59.826;30.108;2023-05-24T03:01:25;101842.94;;;14.97;70.21
78675;BME280;67990;59.826;30.108;2023-05-24T03:04:12;101844.53;;;16.04;67.22
78675;BME280;67990;59.826;30.108;2023-05-24T03:06:40;101841.56;;;17.00;64.28
78675;BME280;67990;59.826;30.108;2023-05-24T03:09:07;101834.97;;;17.91;61.27
78675;BME280;67990;59.826;30.108;2023-05-24T03:11:35;101842.53;;;18.80;58.35
78675;BME280;67990;59.826;30.108;2023-05-24T03:14:02;101822.94;;;19.39;56.75
78675;BME280;67990;59.826;30.108;2023-05-24T03:16:32;101831.78;;;20.19;54.59
78675;BME280;67990;59.826;30.108;2023-05-24T03:18:59;101840.25;;;20.93;50.74
78675;BME280;67990;59.826;30.108;2023-05-24T03:21:28;101837.00;;;21.59;48.47
78675;BME280;67990;59.826;30.108;2023-05-24T03:24:13;101830.16;;;22.16;47.23
78675;BME280;67990;59.826;30.108;2023-05-24T03:26:41;101832.97;;;22.52;45.73
78675;BME280;67990;59.826;30.108;2023-05-24T03:29:08;101826.41;;;22.83;45.09
78675;BME280;67990;59.826;30.108;2023-05-24T03:31:57;101843.22;;;23.63;44.00
78675;BME280;67990;59.826;30.108;2023-05-24T03:34:42;101844.63;;;24.35;43.28
78675;BME280;67990;59.826;30.108;2023-05-24T03:37:30;101838.13;;;24.84;42.76
78675;BME280;67990;59.826;30.108;2023-05-24T03:39:57;101837.28;;;25.37;40.99
78675;BME280;67990;59.826;30.108;2023-05-24T03:42:47;101825.53;;;25.84;40.47
78675;BME280;67990;59.826;30.108;2023-05-24T03:45:14;101834.28;;;26.06;40.18
78675;BME280;67990;59.826;30.108;2023-05-24T03:47:41;101820.06;;;26.56;39.82
78675;BME280;67990;59.826;30.108;2023-05-24T03:50:09;101823.81;;;27.12;37.12
78675;BME280;67990;59.826;30.108;2023-05-24T03:52:37;101830.28;;;27.48;36.91
78675;BME280;67990;59.826;30.108;2023-05-24T03:55:05;101827.69;;;27.91;36.23
78675;BME280;67990;59.826;30.108;2023-05-24T04:00:37;101832.47;;;28.74;34.86
78675;BME280;67990;59.826;30.108;2023-05-24T04:03:22;101830.97;;;28.78;35.32
78675;BME280;67990;59.826;30.108;2023-05-24T04:05:50;101819.19;;;29.20;34.24
78675;BME280;67990;59.826;30.108;2023-05-24T04:08:20;101830.53;;;29.69;33.55
78675;BME280;67990;59.826;30.108;2023-05-24T04:10:47;101836.09;;;29.86;33.08
78675;BME280;67990;59.826;30.108;2023-05-24T04:13:33;101820.91;;;29.85;32.53
78675;BME280;67990;59.826;30.108;2023-05-24T04:16:00;101840.50;;;30.33;32.81
78675;BME280;67990;59.826;30.108;2023-05-24T04:21:33;101845.53;;;31.15;31.55
78675;BME280;67990;59.826;30.108;2023-05-24T04:24:03;101842.91;;;30.92;30.31
78675;BME280;67990;59.826;30.108;2023-05-24T04:26:49;101836.59;;;30.75;31.07
78675;BME280;67990;59.826;30.108;2023-05-24T04:29:33;101843.19;;;30.56;31.06
78675;BME280;67990;59.826;30.108;2023-05-24T04:32:01;101828.94;;;31.56;29.04
78675;BME280;67990;59.826;30.108;2023-05-24T04:34:28;101841.75;;;31.44;29.29
78675;BME280;67990;59.826;30.108;2023-05-24T04:36:58;101834.50;;;31.22;30.35
78675;BME280;67990;59.826;30.108;2023-05-24T04:39:29;101831.75;;;32.11;28.90
78675;BME280;67990;59.826;30.108;2023-05-24T04:42:15;101829.38;;;32.74;26.89
78675;BME280;67990;59.826;30.108;2023-05-24T04:45:01;101843.69;;;32.81;26.98
78675;BME280;67990;59.826;30.108;2023-05-24T04:47:45;101834.63;;;33.23;25.92
78675;BME280;67990;59.826;30.108;2023-05-24T04:50:12;101838.19;;;33.02;26.10
78675;BME280;67990;59.826;30.108;2023-05-24T04:52:58;101833.97;;;32.90;26.96
78675;BME280;67990;59.826;30.108;2023-05-24T04:55:27;101844.56;;;32.86;27.34
78675;BME280;67990;59.826;30.108;2023-05-24T05:00:39;101829.09;;;34.40;25.62
78675;BME280;67990;59.826;30.108;2023-05-24T05:03:07;101827.97;;;34.36;24.44
78675;BME280;67990;59.826;30.108;2023-05-24T05:05:34;101821.22;;;34.53;24.44
78675;BME280;67990;59.826;30.108;2023-05-24T05:08:01;101833.84;;;35.41;22.81
78675;BME280;67990;59.826;30.108;2023-05-24T05:10:49;101828.41;;;35.51;22.38
78675;BME280;67990;59.826;30.108;2023-05-24T05:13:16;101824.53;;;35.32;23.47
78675;BME280;67990;59.826;30.108;2023-05-24T05:15:44;101820.13;;;35.16;23.41
78675;BME280;67990;59.826;30.108;2023-05-24T05:18:11;101827.34;;;34.70;23.83
78675;BME280;67990;59.826;30.108;2023-05-24T05:20:38;101817.16;;;33.19;26.23
78675;BME280;67990;59.826;30.108;2023-05-24T05:23:24;101825.78;;;33.11;26.65
78675;BME280;67990;59.826;30.108;2023-05-24T05:25:52;101842.53;;;34.56;25.57
78675;BME280;67990;59.826;30.108;2023-05-24T05:28:37;101846.38;;;35.22;24.63
78675;BME280;67990;59.826;30.108;2023-05-24T05:31:04;101804.84;;;35.30;23.71
78675;BME280;67990;59.826;30.108;2023-05-24T05:33:31;101839.84;;;35.33;23.79
78675;BME280;67990;59.826;30.108;2023-05-24T05:35:59;101831.41;;;33.84;25.66
78675;BME280;67990;59.826;30.108;2023-05-24T05:41:13;101844.50;;;33.82;26.03
78675;BME280;67990;59.826;30.108;2023-05-24T05:43:59;101837.56;;;36.60;23.16
78675;BME280;67990;59.826;30.108;2023-05-24T05:46:26;101847.91;;;37.36;21.57
78675;BME280;67990;59.826;30.108;2023-05-24T05:48:53;101842.47;;;37.31;20.77
78675;BME280;67990;59.826;30.108;2023-05-24T05:51:20;101846.59;;;37.29;21.22
78675;BME280;67990;59.826;30.108;2023-05-24T05:53:47;101841.75;;;37.06;21.87
78675;BME280;67990;59.826;30.108;2023-05-24T05:56:16;101849.47;;;37.04;21.84
78675;BME280;67990;59.826;30.108;2023-05-24T05:58:44;101841.25;;;36.05;22.70
78675;BME280;67990;59.826;30.108;2023-05-24T06:01:11;101853.03;;;36.26;23.04
78675;BME280;67990;59.826;30.108;2023-05-24T06:03:38;101839.97;;;36.86;22.30
78675;BME280;67990;59.826;30.108;2023-05-24T06:06:05;101834.31;;;37.60;22.11
78675;BME280;67990;59.826;30.108;2023-05-24T06:08:33;101825.56;;;38.86;20.71
78675;BME280;67990;59.826;30.108;2023-05-24T06:11:01;101831.78;;;38.96;18.73
78675;BME280;67990;59.826;30.108;2023-05-24T06:16:53;101836.56;;;36.36;21.80
78675;BME280;67990;59.826;30.108;2023-05-24T06:19:20;101827.28;;;35.67;23.82
78675;BME280;67990;59.826;30.108;2023-05-24T06:21:47;101831.56;;;36.53;22.49
78675;BME280;67990;59.826;30.108;2023-05-24T06:24:34;101841.31;;;36.89;21.89
78675;BME280;67990;59.826;30.108;2023-05-24T06:27:01;101835.50;;;36.02;22.68
78675;BME280;67990;59.826;30.108;2023-05-24T06:29:47;101827.53;;;35.30;23.58
78675;BME280;67990;59.826;30.108;2023-05-24T06:32:15;101840.09;;;37.10;20.13
78675;BME280;67990;59.826;30.108;2023-05-24T06:37:28;101830.28;;;37.47;19.88
78675;BME280;67990;59.826;30.108;2023-05-24T06:40:14;101826.94;;;37.50;21.24
78675;BME280;67990;59.826;30.108;2023-05-24T06:42:41;101832.13;;;38.48;18.64
78675;BME280;67990;59.826;30.108;2023-05-24T06:45:10;101837.25;;;38.54;19.59
78675;BME280;67990;59.826;30.108;2023-05-24T06:47:38;101842.84;;;38.44;18.75
78675;BME280;67990;59.826;30.108;2023-05-24T06:53:10;101834.44;;;35.98;22.28
78675;BME280;67990;59.826;30.108;2023-05-24T06:55:56;101842.72;;;36.76;20.67
78675;BME280;67990;59.826;30.108;2023-05-24T06:58:23;101828.16;;;36.86;21.01
78675;BME280;67990;59.826;30.108;2023-05-24T07:00:52;101830.84;;;36.22;21.51
78675;BME280;67990;59.826;30.108;2023-05-24T07:03:39;101840.69;;;35.63;23.98
78675;BME280;67990;59.826;30.108;2023-05-24T07:06:06;101845.66;;;36.95;20.14
78675;BME280;67990;59.826;30.108;2023-05-24T07:08:34;101832.75;;;37.44;19.84
78675;BME280;67990;59.826;30.108;2023-05-24T07:11:20;101844.25;;;36.14;21.76
78675;BME280;67990;59.826;30.108;2023-05-24T07:13:48;101831.31;;;37.56;19.18
78675;BME280;67990;59.826;30.108;2023-05-24T07:16:15;101841.81;;;37.01;20.78
78675;BME280;67990;59.826;30.108;2023-05-24T07:18:43;101841.25;;;35.85;22.48
78675;BME280;67990;59.826;30.108;2023-05-24T07:21:29;101844.00;;;35.65;22.70
78675;BME280;67990;59.826;30.108;2023-05-24T07:23:56;101847.53;;;37.04;21.45
78675;BME280;67990;59.826;30.108;2023-05-24T07:26:23;101834.06;;;36.39;20.70
78675;BME280;67990;59.826;30.108;2023-05-24T07:28:51;101839.22;;;35.06;22.75
78675;BME280;67990;59.826;30.108;2023-05-24T07:31:35;101831.38;;;33.53;24.98
78675;BME280;67990;59.826;30.108;2023-05-24T07:34:04;101838.06;;;33.14;25.01
78675;BME280;67990;59.826;30.108;2023-05-24T07:36:31;101837.88;;;32.18;26.77
78675;BME280;67990;59.826;30.108;2023-05-24T07:38:58;101845.88;;;32.84;24.75
78675;BME280;67990;59.826;30.108;2023-05-24T07:44:12;101841.75;;;33.03;24.74
78675;BME280;67990;59.826;30.108;2023-05-24T07:46:40;101849.97;;;33.08;24.49
78675;BME280;67990;59.826;30.108;2023-05-24T07:49:08;101833.28;;;32.23;26.78
78675;BME280;67990;59.826;30.108;2023-05-24T07:51:54;101851.44;;;30.03;29.81
78675;BME280;67990;59.826;30.108;2023-05-24T07:54:24;101836.00;;;29.92;28.50
78675;BME280;67990;59.826;30.108;2023-05-24T07:56:51;101824.34;;;30.27;29.38
78675;BME280;67990;59.826;30.108;2023-05-24T07:59:19;101836.72;;;30.46;26.60
78675;BME280;67990;59.826;30.108;2023-05-24T08:04:37;101850.88;;;32.16;26.00
78675;BME280;67990;59.826;30.108;2023-05-24T08:07:04;101829.72;;;33.78;24.31
78675;BME280;67990;59.826;30.108;2023-05-24T08:12:34;101840.81;;;32.33;24.69
78675;BME280;67990;59.826;30.108;2023-05-24T08:15:01;101840.47;;;30.56;27.26
78675;BME280;67990;59.826;30.108;2023-05-24T08:17:28;101842.16;;;29.29;28.81
78675;BME280;67990;59.826;30.108;2023-05-24T08:19:57;101841.47;;;28.68;30.92
78675;BME280;67990;59.826;30.108;2023-05-24T08:22:24;101826.78;;;27.97;31.65
78675;BME280;67990;59.826;30.108;2023-05-24T08:27:37;101829.25;;;26.29;35.31
78675;BME280;67990;59.826;30.108;2023-05-24T08:30:05;101822.88;;;25.97;36.49
78675;BME280;67990;59.826;30.108;2023-05-24T08:32:51;101845.84;;;25.86;36.59
78675;BME280;67990;59.826;30.108;2023-05-24T08:35:20;101830.94;;;25.71;36.92
78675;BME280;67990;59.826;30.108;2023-05-24T08:37:47;101830.53;;;25.67;37.80
78675;BME280;67990;59.826;30.108;2023-05-24T08:40:15;101828.00;;;25.40;38.77
78675;BME280;67990;59.826;30.108;2023-05-24T08:42:43;101835.34;;;25.12;39.74
78675;BME280;67990;59.826;30.108;2023-05-24T08:45:12;101827.97;;;25.33;39.65
78675;BME280;67990;59.826;30.108;2023-05-24T08:50:46;101816.69;;;25.04;39.61
78675;BME280;67990;59.826;30.108;2023-05-24T08:53:35;101815.06;;;25.16;40.18
78675;BME280;67990;59.826;30.108;2023-05-24T08:56:03;101833.38;;;24.86;40.79
78675;BME280;67990;59.826;30.108;2023-05-24T08:58:31;101831.06;;;24.77;40.29
78675;BME280;67990;59.826;30.108;2023-05-24T09:01:17;101831.22;;;25.22;39.87
78675;BME280;67990;59.826;30.108;2023-05-24T09:03:46;101808.47;;;25.18;39.51
78675;BME280;67990;59.826;30.108;2023-05-24T09:06:16;101822.38;;;25.28;38.50
78675;BME280;67990;59.826;30.108;2023-05-24T09:08:44;101819.03;;;25.20;38.96
78675;BME280;67990;59.826;30.108;2023-05-24T09:11:13;101822.84;;;24.91;39.91
78675;BME280;67990;59.826;30.108;2023-05-24T09:13:43;101800.44;;;25.31;38.93
78675;BME280;67990;59.826;30.108;2023-05-24T09:16:11;101799.84;;;25.49;38.76
78675;BME280;67990;59.826;30.108;2023-05-24T09:18:39;101806.69;;;25.84;39.38
78675;BME280;67990;59.826;30.108;2023-05-24T09:21:07;101811.66;;;25.87;38.93
78675;BME280;67990;59.826;30.108;2023-05-24T09:23:36;101804.84;;;25.65;38.20
78675;BME280;67990;59.826;30.108;2023-05-24T09:26:07;101822.63;;;25.92;38.57
78675;BME280;67990;59.826;30.108;2023-05-24T09:28:36;101813.13;;;26.03;38.10
78675;BME280;67990;59.826;30.108;2023-05-24T09:31:03;101810.22;;;26.11;38.00
78675;BME280;67990;59.826;30.108;2023-05-24T09:33:49;101808.72;;;26.34;37.77
78675;BME280;67990;59.826;30.108;2023-05-24T09:36:34;101806.25;;;26.20;37.83
78675;BME280;67990;59.826;30.108;2023-05-24T09:39:09;101817.50;;;26.17;36.87
78675;BME280;67990;59.826;30.108;2023-05-24T09:41:36;101797.16;;;26.21;36.56
78675;BME280;67990;59.826;30.108;2023-05-24T09:44:04;101807.25;;;26.58;36.45
78675;BME280;67990;59.826;30.108;2023-05-24T09:46:49;101806.22;;;26.46;36.48
78675;BME280;67990;59.826;30.108;2023-05-24T09:49:16;101790.28;;;26.38;36.10
78675;BME280;67990;59.826;30.108;2023-05-24T09:51:46;101794.56;;;26.65;35.41
78675;BME280;67990;59.826;30.108;2023-05-24T09:54:15;101801.72;;;26.90;35.51
78675;BME280;67990;59.826;30.108;2023-05-24T09:57:02;101807.72;;;27.36;36.10
78675;BME280;67990;59.826;30.108;2023-05-24T09:59:31;101794.28;;;26.79;35.61
78675;BME280;67990;59.826;30.108;2023-05-24T10:02:06;101803.09;;;26.49;35.82
78675;BME280;67990;59.826;30.108;2023-05-24T10:04:35;101794.66;;;26.26;36.13
78675;BME280;67990;59.826;30.108;2023-05-24T10:07:04;101781.22;;;26.06;36.64
78675;BME280;67990;59.826;30.108;2023-05-24T10:09:33;101804.00;;;26.17;36.48
78675;BME280;67990;59.826;30.108;2023-05-24T10:12:03;101794.97;;;26.68;36.50
78675;BME280;67990;59.826;30.108;2023-05-24T10:14:32;101770.78;;;26.93;35.38
78675;BME280;67990;59.826;30.108;2023-05-24T10:17:01;101797.28;;;27.40;34.93
78675;BME280;67990;59.826;30.108;2023-05-24T10:19:28;101768.44;;;27.03;35.05
78675;BME280;67990;59.826;30.108;2023-05-24T10:21:56;101800.91;;;26.83;36.40
78675;BME280;67990;59.826;30.108;2023-05-24T10:24:34;101794.75;;;26.57;35.50
78675;BME280;67990;59.826;30.108;2023-05-24T10:27:04;101783.44;;;26.29;36.29
78675;BME280;67990;59.826;30.108;2023-05-24T10:29:40;101786.69;;;26.50;36.60
78675;BME280;67990;59.826;30.108;2023-05-24T10:32:11;101778.69;;;26.31;36.45
78675;BME280;67990;59.826;30.108;2023-05-24T10:34:58;101791.50;;;26.99;35.10
78675;BME280;67990;59.826;30.108;2023-05-24T10:37:45;101787.63;;;27.26;34.36
78675;BME280;67990;59.826;30.108;2023-05-24T10:40:17;101790.09;;;27.34;32.63
78675;BME280;67990;59.826;30.108;2023-05-24T10:42:47;101790.78;;;27.54;33.40
78675;BME280;67990;59.826;30.108;2023-05-24T10:45:29;101793.78;;;27.64;33.95
78675;BME280;67990;59.826;30.108;2023-05-24T10:48:00;101770.81;;;27.24;29.13
78675;BME280;67990;59.826;30.108;2023-05-24T10:50:28;101765.94;;;27.08;29.71
78675;BME280;67990;59.826;30.108;2023-05-24T10:53:10;101775.13;;;26.94;32.05
78675;BME280;67990;59.826;30.108;2023-05-24T10:55:52;101775.22;;;27.18;31.64
78675;BME280;67990;59.826;30.108;2023-05-24T10:58:58;101772.50;;;27.18;32.72
78675;BME280;67990;59.826;30.108;2023-05-24T11:01:27;101773.75;;;27.22;33.17
78675;BME280;67990;59.826;30.108;2023-05-24T11:04:06;101775.84;;;27.20;32.38
78675;BME280;67990;59.826;30.108;2023-05-24T11:06:56;101770.22;;;27.22;33.11
78675;BME280;67990;59.826;30.108;2023-05-24T11:09:25;101769.78;;;26.87;31.98
78675;BME280;67990;59.826;30.108;2023-05-24T11:12:00;101763.22;;;26.70;33.52
78675;BME280;67990;59.826;30.108;2023-05-24T11:14:30;101761.59;;;26.63;33.05
78675;BME280;67990;59.826;30.108;2023-05-24T11:16:58;101764.94;;;26.58;33.88
78675;BME280;67990;59.826;30.108;2023-05-24T11:19:31;101766.41;;;26.41;33.28
78675;BME280;67990;59.826;30.108;2023-05-24T11:22:01;101765.03;;;26.19;33.21
78675;BME280;67990;59.826;30.108;2023-05-24T11:24:28;101767.03;;;26.37;32.76
78675;BME280;67990;59.826;30.108;2023-05-24T11:26:59;101762.09;;;26.34;33.58
78675;BME280;67990;59.826;30.108;2023-05-24T11:29:26;101746.22;;;26.06;33.19
78675;BME280;67990;59.826;30.108;2023-05-24T11:31:56;101746.94;;;26.33;33.33
78675;BME280;67990;59.826;30.108;2023-05-24T11:34:26;101742.97;;;26.48;33.97
78675;BME280;67990;59.826;30.108;2023-05-24T11:37:13;101742.22;;;26.28;30.45
78675;BME280;67990;59.826;30.108;2023-05-24T11:39:40;101748.69;;;26.01;32.69
78675;BME280;67990;59.826;30.108;2023-05-24T11:42:27;101747.44;;;25.97;33.16
78675;BME280;67990;59.826;30.108;2023-05-24T11:45:13;101744.97;;;26.09;32.81
78675;BME280;67990;59.826;30.108;2023-05-24T11:47:41;101744.75;;;26.10;32.52
78675;BME280;67990;59.826;30.108;2023-05-24T11:50:27;101744.50;;;26.18;32.29
78675;BME280;67990;59.826;30.108;2023-05-24T11:53:13;101743.47;;;26.19;31.47
78675;BME280;67990;59.826;30.108;2023-05-24T11:55:41;101746.41;;;25.85;30.81
78675;BME280;67990;59.826;30.108;2023-05-24T11:58:18;101737.94;;;25.95;32.04
78675;BME280;67990;59.826;30.108;2023-05-24T12:01:03;101742.25;;;25.82;33.08
78675;BME280;67990;59.826;30.108;2023-05-24T12:03:31;101744.94;;;25.89;32.07
78675;BME280;67990;59.826;30.108;2023-05-24T12:06:16;101735.19;;;26.08;33.14
78675;BME280;67990;59.826;30.108;2023-05-24T12:09:00;101733.59;;;25.94;34.23
78675;BME280;67990;59.826;30.108;2023-05-24T12:11:30;101732.16;;;25.71;32.35
78675;BME280;67990;59.826;30.108;2023-05-24T12:13:59;101732.38;;;25.57;34.79
78675;BME280;67990;59.826;30.108;2023-05-24T12:16:26;101728.22;;;25.61;35.11
78675;BME280;67990;59.826;30.108;2023-05-24T12:18:57;101720.75;;;25.56;33.75
78675;BME280;67990;59.826;30.108;2023-05-24T12:24:11;101717.66;;;25.66;31.84
78675;BME280;67990;59.826;30.108;2023-05-24T12:29:47;101707.03;;;25.12;33.10
78675;BME280;67990;59.826;30.108;2023-05-24T12:32:16;101709.34;;;25.41;32.91
78675;BME280;67990;59.826;30.108;2023-05-24T12:34:43;101705.84;;;25.60;32.12
78675;BME280;67990;59.826;30.108;2023-05-24T12:37:11;101700.28;;;25.29;31.83
78675;BME280;67990;59.826;30.108;2023-05-24T12:39:38;101687.13;;;24.87;31.57
78675;BME280;67990;59.826;30.108;2023-05-24T12:42:07;101701.88;;;25.17;31.41
78675;BME280;67990;59.826;30.108;2023-05-24T12:44:56;101691.91;;;24.92;31.19
78675;BME280;67990;59.826;30.108;2023-05-24T12:47:24;101698.00;;;25.33;32.48
78675;BME280;67990;59.826;30.108;2023-05-24T12:49:51;101692.19;;;25.62;31.90
78675;BME280;67990;59.826;30.108;2023-05-24T12:52:18;101682.25;;;25.62;31.42
78675;BME280;67990;59.826;30.108;2023-05-24T12:54:45;101678.53;;;25.50;32.24
78675;BME280;67990;59.826;30.108;2023-05-24T12:57:12;101678.91;;;25.73;32.81
78675;BME280;67990;59.826;30.108;2023-05-24T12:59:39;101682.19;;;25.88;31.55
78675;BME280;67990;59.826;30.108;2023-05-24T13:02:26;101692.13;;;25.88;32.32
78675;BME280;67990;59.826;30.108;2023-05-24T13:04:53;101688.03;;;25.33;29.58
78675;BME280;67990;59.826;30.108;2023-05-24T13:07:20;101694.47;;;25.39;30.04
78675;BME280;67990;59.826;30.108;2023-05-24T13:09:47;101691.75;;;25.52;30.81
78675;BME280;67990;59.826;30.108;2023-05-24T13:15:01;101682.63;;;25.27;30.78
78675;BME280;67990;59.826;30.108;2023-05-24T13:17:30;101677.66;;;25.69;31.08
78675;BME280;67990;59.826;30.108;2023-05-24T13:20:15;101682.22;;;25.95;29.61
78675;BME280;67990;59.826;30.108;2023-05-24T13:22:47;101682.16;;;26.08;31.02
78675;BME280;67990;59.826;30.108;2023-05-24T13:25:15;101677.41;;;26.10;31.14
78675;BME280;67990;59.826;30.108;2023-05-24T13:27:42;101679.03;;;26.18;31.55
78675;BME280;67990;59.826;30.108;2023-05-24T13:30:26;101682.47;;;26.38;30.53
78675;BME280;67990;59.826;30.108;2023-05-24T13:32:55;101681.25;;;26.34;32.29
78675;BME280;67990;59.826;30.108;2023-05-24T13:35:23;101677.16;;;26.12;31.58
78675;BME280;67990;59.826;30.108;2023-05-24T13:37:50;101673.22;;;26.21;33.02
78675;BME280;67990;59.826;30.108;2023-05-24T13:40:19;101671.97;;;26.23;32.31
78675;BME280;67990;59.826;30.108;2023-05-24T13:42:46;101669.34;;;25.97;32.96
78675;BME280;67990;59.826;30.108;2023-05-24T13:45:32;101669.97;;;25.92;33.22
78675;BME280;67990;59.826;30.108;2023-05-24T13:48:00;101671.00;;;25.92;33.38
78675;BME280;67990;59.826;30.108;2023-05-24T13:50:46;101675.13;;;26.07;33.32
78675;BME280;67990;59.826;30.108;2023-05-24T13:53:14;101677.41;;;26.10;33.55
78675;BME280;67990;59.826;30.108;2023-05-24T13:55:41;101681.13;;;26.03;34.13
78675;BME280;67990;59.826;30.108;2023-05-24T13:58:08;101666.06;;;25.82;35.31
78675;BME280;67990;59.826;30.108;2023-05-24T14:00:35;101666.09;;;25.69;35.82
78675;BME280;67990;59.826;30.108;2023-05-24T14:03:04;101680.75;;;25.79;36.94
78675;BME280;67990;59.826;30.108;2023-05-24T14:05:50;101681.81;;;25.59;36.81
78675;BME280;67990;59.826;30.108;2023-05-24T14:11:07;101678.09;;;25.08;37.98
78675;BME280;67990;59.826;30.108;2023-05-24T14:13:35;101680.31;;;24.98;37.68